Terminal Aerodrome Forecast
Issued by NWS Jackson, KY

Home | Current Version | Previous Version | Text Only | Print | Product List | Glossary On
Versions: 1 2 3 4 5 6 7
000
FTUS43 KJKL 242300
TAFLOZ
TAF
KLOZ 242333Z 2500/2524 25010G18KT P6SM OVC015
     FM250600 26010KT 5SM -RA BR OVC018
     FM251000 25008KT P6SM BKN025
     FM251800 23005KT P6SM SCT025=

USA.gov is the U.S. government's official web portal to all federal, state and local government web resources and services.